Roscoe, Minnesota
Current Conditions -  °F | °C
As of 10:54 AM on Thursday 30 Oct 2014 (Local Time) from KPEX Reporting Station
Overcast Overcast  
Wind Chill: 35°   Ceiling: 2700
Heat Index: 39°   Visibility: 10mi
Dew Point: 35°   Wind: 5mph
Humidity: 87%   Direction: 310°NW
Pressure: 30.1"   Gusts: NA
Location:  45.43°N, 94.64°W
Report Text: KPEX 301554Z AUTO 31004KT 10SM BKN027 OVC034 04/02 A3010 RMK AO2 T00370017
Loading
Personal Weather Stations






























Interactive Weather Map
Tropical Storm Tracking
New forecast layout! Learn more

10-Day Weather Forecast

Advertisements
Track Severe Weather on mobile